createdAt,value
2023-01-22T00:00:40.268Z,19.98
2023-01-22T00:02:42.871Z,20.88
2023-01-22T00:04:46.810Z,20.52
2023-01-22T00:06:49.383Z,20.05
2023-01-22T00:08:52.406Z,19.63
2023-01-22T00:10:56.621Z,19.10
2023-01-22T00:12:59.254Z,19.20
2023-01-22T00:15:01.825Z,18.98
2023-01-22T00:17:04.582Z,20.80
2023-01-22T00:19:07.269Z,20.63
2023-01-22T00:21:12.465Z,20.35
2023-01-22T00:23:15.213Z,18.80
2023-01-22T00:25:17.923Z,20.10
2023-01-22T00:27:20.487Z,19.40
2023-01-22T00:29:23.027Z,19.10
2023-01-22T00:31:25.938Z,19.35
2023-01-22T00:33:28.707Z,19.45
2023-01-22T00:35:33.993Z,20.10
2023-01-22T00:37:37.958Z,20.38
2023-01-22T00:39:40.529Z,19.08
2023-01-22T00:41:43.729Z,20.25
2023-01-22T00:43:46.823Z,19.15
2023-01-22T00:45:49.348Z,20.25
2023-01-22T00:47:52.036Z,19.80
2023-01-22T00:49:54.901Z,19.38
2023-01-22T00:51:57.515Z,20.60
2023-01-22T00:54:01.448Z,18.83
2023-01-22T00:56:04.201Z,19.08
2023-01-22T00:58:06.802Z,19.85
2023-01-22T01:00:10.852Z,19.50
2023-01-22T01:02:13.480Z,19.75
2023-01-22T01:04:16.242Z,18.17
2023-01-22T01:06:21.163Z,19.95
2023-01-22T01:08:24.617Z,19.08
2023-01-22T01:10:29.584Z,19.00
2023-01-22T01:12:32.237Z,17.83
2023-01-22T01:14:35.007Z,19.52
2023-01-22T01:16:37.609Z,18.05
2023-01-22T01:18:40.392Z,18.73
2023-01-22T01:20:42.914Z,18.73
2023-01-22T01:22:45.475Z,19.85
2023-01-22T01:24:48.067Z,19.15
2023-01-22T01:26:51.933Z,19.02
2023-01-22T01:28:54.726Z,17.90
2023-01-22T01:30:57.306Z,20.30
2023-01-22T01:32:59.986Z,18.20
2023-01-22T01:35:02.581Z,18.83
2023-01-22T01:37:05.178Z,19.08
2023-01-22T01:39:07.771Z,18.70
2023-01-22T01:41:13.017Z,18.50
2023-01-22T01:43:17.993Z,18.77
2023-01-22T01:45:27.124Z,19.38
2023-01-22T01:47:35.368Z,18.48
2023-01-22T01:49:49.713Z,18.45
2023-01-22T01:51:55.409Z,18.98
2023-01-22T01:54:00.495Z,19.20
2023-01-22T01:56:07.943Z,18.85
2023-01-22T01:58:14.600Z,19.60
2023-01-22T02:00:19.877Z,18.58
2023-01-22T02:02:23.314Z,19.05
2023-01-22T02:04:27.861Z,18.42
2023-01-22T02:06:30.528Z,18.77
2023-01-22T02:08:33.625Z,18.10
2023-01-22T02:10:37.123Z,19.35
2023-01-22T02:12:39.718Z,19.27
2023-01-22T02:14:45.863Z,18.85
2023-01-22T02:16:49.744Z,19.92
2023-01-22T02:18:52.492Z,18.92
2023-01-22T02:20:57.595Z,19.25
2023-01-22T02:23:00.111Z,17.67
2023-01-22T02:25:02.752Z,18.98
2023-01-22T02:27:05.397Z,17.95
2023-01-22T02:29:09.612Z,19.60
2023-01-22T02:31:12.331Z,18.75
2023-01-22T02:33:15.370Z,19.20
2023-01-22T02:35:18.173Z,19.92
2023-01-22T02:37:22.390Z,18.65
2023-01-22T02:39:24.986Z,17.55
2023-01-22T02:41:28.651Z,17.08
2023-01-22T02:43:31.201Z,19.50
2023-01-22T02:45:33.754Z,19.30
2023-01-22T02:47:36.501Z,20.35
2023-01-22T02:49:39.019Z,19.75
2023-01-22T02:51:41.634Z,17.75
2023-01-22T02:53:45.549Z,19.20
2023-01-22T02:55:49.057Z,18.13
2023-01-22T02:57:51.666Z,18.52
2023-01-22T02:59:54.215Z,17.33
2023-01-22T03:01:57.455Z,18.65
2023-01-22T03:04:01.899Z,18.98
2023-01-22T03:06:04.807Z,17.38
2023-01-22T03:08:07.624Z,17.50
2023-01-22T03:10:14.357Z,18.08
2023-01-22T03:12:16.920Z,16.73
2023-01-22T03:14:36.927Z,17.77
2023-01-22T03:16:57.020Z,17.30
2023-01-22T03:19:18.036Z,17.15
2023-01-22T03:21:20.776Z,16.57
2023-01-22T03:23:27.602Z,16.65
2023-01-22T03:25:31.510Z,16.85
2023-01-22T03:27:34.069Z,15.77
2023-01-22T03:29:38.286Z,15.95
2023-01-22T03:31:41.061Z,16.38
2023-01-22T03:33:44.129Z,15.52
2023-01-22T03:35:46.703Z,16.88
2023-01-22T03:37:49.539Z,16.40
2023-01-22T03:39:52.095Z,17.10
2023-01-22T03:41:55.994Z,15.25
2023-01-22T03:44:01.322Z,17.25
2023-01-22T03:46:05.701Z,15.27
2023-01-22T03:48:08.314Z,16.17
2023-01-22T03:50:11.580Z,16.38
2023-01-22T03:52:14.157Z,17.05
2023-01-22T03:54:17.776Z,16.67
2023-01-22T03:56:22.725Z,17.20
2023-01-22T03:58:26.856Z,16.13
2023-01-22T04:00:29.773Z,18.25
2023-01-22T04:02:32.348Z,17.25
2023-01-22T04:04:34.945Z,17.13
2023-01-22T04:06:37.518Z,17.70
2023-01-22T04:08:41.755Z,15.73
2023-01-22T04:10:44.512Z,16.63
2023-01-22T04:12:47.087Z,17.27
2023-01-22T04:14:51.020Z,17.40
2023-01-22T04:16:53.626Z,16.83
2023-01-22T04:18:56.242Z,17.35
2023-01-22T04:20:59.152Z,17.17
2023-01-22T04:23:01.837Z,17.65
2023-01-22T04:25:04.698Z,17.45
2023-01-22T04:27:07.244Z,17.77
2023-01-22T04:29:09.990Z,17.25
2023-01-22T04:31:13.956Z,15.80
2023-01-22T04:33:16.603Z,17.13
2023-01-22T04:35:19.557Z,18.77
2023-01-22T04:37:22.112Z,18.17
2023-01-22T04:39:24.698Z,18.50
2023-01-22T04:41:27.261Z,19.10
2023-01-22T04:43:29.891Z,18.48
2023-01-22T04:45:32.578Z,17.38
2023-01-22T04:47:40.975Z,18.38
2023-01-22T04:49:43.518Z,17.33
2023-01-22T04:51:46.118Z,18.42
2023-01-22T04:53:48.670Z,17.63
2023-01-22T04:55:51.206Z,19.08
2023-01-22T04:57:55.299Z,18.38
2023-01-22T04:59:57.873Z,18.63
2023-01-22T05:02:00.453Z,17.35
2023-01-22T05:04:04.529Z,19.13
2023-01-22T05:06:07.672Z,17.52
2023-01-22T05:08:10.245Z,17.23
2023-01-22T05:10:12.889Z,18.10
2023-01-22T05:12:15.510Z,19.38
2023-01-22T05:14:18.088Z,19.80
2023-01-22T05:16:20.938Z,19.27
2023-01-22T05:18:23.588Z,20.75
2023-01-22T05:20:27.840Z,20.60
2023-01-22T05:22:30.435Z,22.45
2023-01-22T05:24:35.008Z,20.80
2023-01-22T05:26:37.670Z,21.25
2023-01-22T05:28:40.248Z,20.88
2023-01-22T05:30:42.921Z,20.65
2023-01-22T05:32:45.539Z,21.13
2023-01-22T05:34:48.099Z,21.52
2023-01-22T05:36:52.987Z,20.38
2023-01-22T05:38:55.555Z,20.38
2023-01-22T05:40:58.247Z,20.25
2023-01-22T05:43:03.555Z,20.25
2023-01-22T05:45:07.325Z,20.92
2023-01-22T05:47:10.860Z,21.75
2023-01-22T05:49:13.483Z,21.30
2023-01-22T05:51:16.098Z,19.88
2023-01-22T05:53:20.092Z,22.38
2023-01-22T05:55:22.958Z,20.55
2023-01-22T05:57:27.089Z,21.17
2023-01-22T05:59:29.683Z,20.73
2023-01-22T06:01:32.301Z,23.27
2023-01-22T06:03:34.975Z,21.60
2023-01-22T06:05:37.923Z,19.42
2023-01-22T06:07:40.535Z,23.02
2023-01-22T06:09:44.435Z,22.33
2023-01-22T06:11:47.008Z,23.52
2023-01-22T06:13:49.824Z,21.60
2023-01-22T06:15:53.650Z,22.83
2023-01-22T06:18:01.508Z,24.17
2023-01-22T06:20:04.577Z,21.95
2023-01-22T06:22:07.150Z,21.25
2023-01-22T06:24:09.786Z,20.67
2023-01-22T06:26:13.911Z,21.48
2023-01-22T06:28:16.442Z,22.35
2023-01-22T06:30:19.348Z,22.33
2023-01-22T06:32:22.213Z,22.02
2023-01-22T06:34:24.993Z,21.55
2023-01-22T06:36:28.153Z,21.73
2023-01-22T06:38:31.482Z,23.25
2023-01-22T06:40:34.352Z,21.83
2023-01-22T06:42:39.050Z,22.92
2023-01-22T06:44:41.625Z,22.27
2023-01-22T06:46:44.320Z,21.63
2023-01-22T06:48:49.640Z,21.67
2023-01-22T06:50:52.524Z,21.58
2023-01-22T06:52:55.072Z,23.05
2023-01-22T06:54:57.689Z,21.13
2023-01-22T06:57:00.327Z,22.60
2023-01-22T06:59:04.256Z,21.63
2023-01-22T07:01:07.664Z,21.15
2023-01-22T07:03:10.455Z,21.33
2023-01-22T07:05:13.347Z,20.77
2023-01-22T07:07:16.081Z,21.45
2023-01-22T07:09:18.705Z,20.08
2023-01-22T07:11:21.283Z,20.98
2023-01-22T07:13:23.854Z,19.75
2023-01-22T07:15:27.965Z,19.80
2023-01-22T07:17:30.628Z,22.00
2023-01-22T07:19:33.276Z,22.02
2023-01-22T07:21:35.939Z,22.35
2023-01-22T07:23:38.498Z,22.00
2023-01-22T07:25:41.047Z,22.05
2023-01-22T07:27:43.693Z,22.25
2023-01-22T07:29:47.520Z,23.67
2023-01-22T07:31:51.461Z,23.50
2023-01-22T07:33:54.023Z,23.85
2023-01-22T07:35:57.322Z,24.73
2023-01-22T07:38:00.681Z,25.90
2023-01-22T07:40:03.538Z,24.50
2023-01-22T07:42:09.249Z,25.40
2023-01-22T07:44:12.591Z,26.23
2023-01-22T07:46:15.236Z,23.15
2023-01-22T07:48:19.136Z,25.45
2023-01-22T07:50:22.469Z,24.27
2023-01-22T07:52:25.143Z,24.75
2023-01-22T07:54:27.733Z,25.25
2023-01-22T07:56:30.332Z,22.75
2023-01-22T07:58:33.111Z,23.20
2023-01-22T08:00:36.800Z,26.88
2023-01-22T08:02:39.949Z,25.50
2023-01-22T08:04:44.237Z,25.30
2023-01-22T08:06:46.765Z,24.25
2023-01-22T08:08:49.396Z,23.52
2023-01-22T08:10:51.941Z,23.92
2023-01-22T08:12:54.521Z,24.15
2023-01-22T08:14:57.404Z,24.33
2023-01-22T08:17:00.047Z,24.40
2023-01-22T08:19:02.641Z,24.05
2023-01-22T08:21:07.007Z,25.00
2023-01-22T08:23:09.553Z,24.17
2023-01-22T08:25:12.228Z,23.95
2023-01-22T08:27:14.771Z,23.02
2023-01-22T08:29:17.383Z,24.15
2023-01-22T08:31:27.984Z,24.83
2023-01-22T08:33:33.243Z,24.75
2023-01-22T08:35:35.835Z,25.38
2023-01-22T08:37:39.726Z,23.13
2023-01-22T08:39:42.255Z,23.95
2023-01-22T08:41:44.937Z,24.50
2023-01-22T08:43:47.483Z,23.88
2023-01-22T08:45:50.394Z,24.33
2023-01-22T08:47:58.780Z,24.05
2023-01-22T08:50:01.984Z,24.50
2023-01-22T08:52:04.749Z,22.95
2023-01-22T08:54:08.742Z,24.33
2023-01-22T08:56:11.329Z,26.05
2023-01-22T08:58:14.985Z,24.98
2023-01-22T09:00:18.261Z,23.60
2023-01-22T09:02:24.053Z,22.85
2023-01-22T09:04:27.023Z,29.08
2023-01-22T09:06:32.357Z,32.85
2023-01-22T09:08:34.996Z,33.67
2023-01-22T09:10:38.928Z,31.02
2023-01-22T09:12:41.864Z,29.27
2023-01-22T09:14:44.496Z,29.30
2023-01-22T09:16:47.176Z,29.02
2023-01-22T09:18:49.744Z,30.67
2023-01-22T09:20:52.277Z,30.75
2023-01-22T09:22:54.897Z,31.13
2023-01-22T09:24:57.500Z,30.25
2023-01-22T09:27:01.415Z,28.80
2023-01-22T09:29:05.843Z,26.40
2023-01-22T09:31:08.562Z,25.90
2023-01-22T09:33:11.119Z,27.42
2023-01-22T09:35:16.275Z,27.58
2023-01-22T09:37:19.091Z,26.05
2023-01-22T09:39:21.723Z,26.98
2023-01-22T09:41:29.280Z,25.15
2023-01-22T09:43:38.090Z,27.13
2023-01-22T09:45:41.959Z,25.10
2023-01-22T09:47:47.984Z,24.67
2023-01-22T09:49:58.223Z,25.42
2023-01-22T09:52:05.107Z,25.65
2023-01-22T09:54:08.823Z,24.15
2023-01-22T09:56:20.862Z,21.52
2023-01-22T09:58:25.190Z,22.70
2023-01-22T10:00:39.343Z,20.17
2023-01-22T10:02:46.292Z,20.10
2023-01-22T10:04:53.055Z,22.73
2023-01-22T10:06:57.893Z,22.38
2023-01-22T10:09:11.739Z,21.08
2023-01-22T10:11:14.304Z,21.02
2023-01-22T10:13:20.226Z,21.15
2023-01-22T10:15:25.024Z,20.80
2023-01-22T10:17:33.562Z,19.02
2023-01-22T10:19:44.866Z,19.52
2023-01-22T10:21:50.288Z,19.27
2023-01-22T10:23:56.075Z,18.98
2023-01-22T10:26:15.178Z,19.48
2023-01-22T10:28:26.702Z,19.92
2023-01-22T10:30:30.556Z,18.92
2023-01-22T10:32:34.940Z,20.42
2023-01-22T10:34:38.066Z,17.65
2023-01-22T10:36:40.687Z,17.02
2023-01-22T10:38:43.291Z,16.85
2023-01-22T10:40:45.854Z,18.17
2023-01-22T10:42:49.655Z,18.70
2023-01-22T10:44:56.879Z,16.85
2023-01-22T10:47:09.320Z,17.77
2023-01-22T10:49:16.825Z,15.77
2023-01-22T10:51:27.401Z,13.38
2023-01-22T10:53:34.294Z,16.00
2023-01-22T10:55:44.556Z,13.52
2023-01-22T10:57:52.858Z,15.82
2023-01-22T11:00:02.408Z,15.07
2023-01-22T11:02:17.774Z,14.35
2023-01-22T11:04:24.784Z,13.40
2023-01-22T11:06:34.749Z,13.40
2023-01-22T11:08:46.279Z,13.75
2023-01-22T11:10:52.729Z,14.20
2023-01-22T11:12:59.767Z,14.60
2023-01-22T11:15:10.295Z,13.95
2023-01-22T11:17:21.150Z,16.05
2023-01-22T11:19:36.896Z,15.68
2023-01-22T11:21:44.551Z,16.75
2023-01-22T11:23:58.404Z,15.68
2023-01-22T11:26:10.924Z,15.90
2023-01-22T11:28:27.826Z,15.75
2023-01-22T11:30:57.908Z,16.13
2023-01-22T11:33:10.369Z,15.27
2023-01-22T11:35:25.466Z,16.08
2023-01-22T11:37:42.011Z,15.20
2023-01-22T11:40:03.402Z,17.13
2023-01-22T11:42:15.778Z,16.20
2023-01-22T11:44:35.593Z,16.38
2023-01-22T11:46:55.726Z,16.10
2023-01-22T11:49:06.822Z,17.80
2023-01-22T11:51:20.462Z,17.15
2023-01-22T11:53:43.361Z,17.13
2023-01-22T11:56:01.380Z,15.60
2023-01-22T11:58:13.366Z,16.35
2023-01-22T12:00:34.363Z,14.90
2023-01-22T12:03:12.000Z,17.00
2023-01-22T12:05:26.913Z,18.17
2023-01-22T12:07:49.511Z,16.00
2023-01-22T12:10:14.704Z,16.63
2023-01-22T12:12:32.837Z,17.05
2023-01-22T12:14:51.446Z,16.13
2023-01-22T12:17:01.638Z,16.40
2023-01-22T12:19:23.885Z,16.42
2023-01-22T12:21:40.336Z,17.67
2023-01-22T12:23:52.304Z,16.60
2023-01-22T12:28:07.328Z,16.60
2023-01-22T12:30:18.758Z,17.30
2023-01-22T12:32:24.104Z,16.85
2023-01-22T12:34:32.524Z,17.30
2023-01-22T12:36:35.669Z,18.17
2023-01-22T12:38:47.715Z,17.48
2023-01-22T12:41:04.812Z,19.08
2023-01-22T12:43:08.514Z,17.48
2023-01-22T12:45:23.854Z,19.20
2023-01-22T12:47:32.270Z,19.02
2023-01-22T12:49:46.150Z,18.40
2023-01-22T12:51:50.663Z,19.58
2023-01-22T12:53:54.722Z,19.25
2023-01-22T12:56:03.498Z,19.65
2023-01-22T12:58:22.268Z,18.92
2023-01-22T13:00:30.296Z,19.63
2023-01-22T13:02:39.058Z,19.05
2023-01-22T13:04:41.645Z,19.80
2023-01-22T13:06:46.201Z,20.83
2023-01-22T13:08:48.941Z,20.42
2023-01-22T13:10:58.183Z,20.25
2023-01-22T13:13:05.548Z,19.85
2023-01-22T13:15:18.099Z,19.60
2023-01-22T13:17:24.306Z,17.98
2023-01-22T13:19:30.920Z,19.50
2023-01-22T13:21:34.977Z,19.20
2023-01-22T13:23:43.830Z,19.25
2023-01-22T13:25:46.406Z,19.00
2023-01-22T13:27:50.287Z,17.70
2023-01-22T13:29:53.331Z,18.27
2023-01-22T13:31:57.300Z,17.90
2023-01-22T13:34:08.531Z,16.90
2023-01-22T13:36:14.893Z,17.55
2023-01-22T13:38:22.658Z,16.35
2023-01-22T13:40:27.389Z,18.02
2023-01-22T13:42:30.061Z,16.67
2023-01-22T13:44:35.822Z,17.33
2023-01-22T13:46:39.256Z,15.85
2023-01-22T13:48:42.400Z,17.20
2023-01-22T13:50:47.658Z,17.02
2023-01-22T13:52:51.274Z,14.95
2023-01-22T13:55:07.748Z,16.02
2023-01-22T13:57:13.540Z,18.23
2023-01-22T13:59:21.819Z,14.68
2023-01-22T14:01:31.750Z,15.50
2023-01-22T14:03:34.958Z,16.88
2023-01-22T14:05:38.444Z,15.95
2023-01-22T14:07:41.903Z,16.30
2023-01-22T14:09:44.933Z,17.10
2023-01-22T14:11:49.918Z,15.77
2023-01-22T14:13:54.136Z,16.95
2023-01-22T14:15:59.412Z,17.13
2023-01-22T14:18:12.053Z,16.23
2023-01-22T14:20:14.937Z,15.32
2023-01-22T14:22:17.622Z,15.75
2023-01-22T14:24:20.181Z,16.73
2023-01-22T14:26:22.719Z,17.15
2023-01-22T14:28:26.066Z,15.55
2023-01-22T14:30:29.099Z,16.45
2023-01-22T14:32:34.477Z,16.95
2023-01-22T14:34:38.456Z,15.25
2023-01-22T14:36:41.017Z,16.65
2023-01-22T14:38:43.580Z,15.75
2023-01-22T14:40:46.432Z,16.13
2023-01-22T14:42:49.324Z,15.48
2023-01-22T14:44:51.865Z,15.20
2023-01-22T14:46:54.719Z,16.88
2023-01-22T14:48:57.570Z,16.00
2023-01-22T14:51:01.504Z,16.63
2023-01-22T14:53:04.072Z,15.15
2023-01-22T14:55:07.415Z,16.08
2023-01-22T14:57:09.943Z,14.75
2023-01-22T14:59:12.634Z,15.95
2023-01-22T15:01:17.403Z,14.75
2023-01-22T15:03:20.010Z,16.35
2023-01-22T15:05:22.595Z,15.25
2023-01-22T15:07:26.634Z,17.20
2023-01-22T15:09:29.214Z,15.40
2023-01-22T15:11:32.639Z,15.50
2023-01-22T15:13:35.613Z,16.17
2023-01-22T15:15:38.207Z,15.38
2023-01-22T15:17:40.734Z,16.35
2023-01-22T15:19:43.292Z,15.40
2023-01-22T15:21:48.778Z,16.63
2023-01-22T15:23:52.660Z,16.70
2023-01-22T15:25:59.790Z,16.98
2023-01-22T15:28:03.086Z,17.65
2023-01-22T15:30:06.635Z,15.85
2023-01-22T15:32:09.193Z,16.58
2023-01-22T15:34:11.761Z,16.77
2023-01-22T15:36:14.414Z,15.98
2023-01-22T15:38:17.046Z,15.00
2023-01-22T15:40:21.435Z,15.98
2023-01-22T15:42:24.076Z,15.68
2023-01-22T15:44:26.735Z,16.05
2023-01-22T15:46:31.343Z,16.20
2023-01-22T15:48:33.855Z,16.77
2023-01-22T15:50:36.451Z,15.63
2023-01-22T15:52:39.058Z,16.67
2023-01-22T15:54:41.601Z,15.57
2023-01-22T15:56:45.989Z,15.50
2023-01-22T15:58:51.065Z,17.50
2023-01-22T16:00:55.329Z,16.65
2023-01-22T16:02:59.737Z,16.90
2023-01-22T16:05:02.306Z,16.05
2023-01-22T16:07:04.932Z,15.60
2023-01-22T16:09:08.606Z,15.38
2023-01-22T16:11:11.769Z,16.00
2023-01-22T16:13:15.677Z,16.35
2023-01-22T16:15:18.503Z,16.25
2023-01-22T16:17:21.079Z,16.13
2023-01-22T16:19:23.771Z,17.35
2023-01-22T16:21:26.848Z,17.92
2023-01-22T16:23:30.476Z,17.40
2023-01-22T16:25:33.104Z,19.77
2023-01-22T16:27:35.625Z,18.92
2023-01-22T16:29:40.378Z,20.75
2023-01-22T16:31:43.055Z,17.38
2023-01-22T16:33:47.166Z,16.48
2023-01-22T16:35:49.767Z,15.25
2023-01-22T16:37:52.336Z,16.05
2023-01-22T16:39:54.935Z,16.80
2023-01-22T16:41:57.533Z,17.25
2023-01-22T16:44:02.691Z,17.75
2023-01-22T16:46:06.656Z,21.55
2023-01-22T16:48:09.256Z,21.02
2023-01-22T16:50:12.134Z,21.88
2023-01-22T16:52:22.444Z,21.98
2023-01-22T16:54:28.832Z,23.20
2023-01-22T16:56:32.417Z,22.55
2023-01-22T16:58:35.056Z,21.38
2023-01-22T17:00:37.592Z,20.30
2023-01-22T17:02:41.438Z,20.30
2023-01-22T17:04:44.727Z,18.35
2023-01-22T17:06:49.768Z,19.17
2023-01-22T17:08:52.954Z,18.83
2023-01-22T17:10:55.638Z,19.00
2023-01-22T17:12:58.244Z,19.25
2023-01-22T17:15:00.780Z,20.92
2023-01-22T17:17:04.212Z,20.13
2023-01-22T17:19:08.084Z,20.77
2023-01-22T17:21:13.557Z,19.77
2023-01-22T17:23:16.081Z,19.30
2023-01-22T17:25:18.802Z,19.80
2023-01-22T17:27:21.559Z,20.70
2023-01-22T17:29:24.187Z,20.58
2023-01-22T17:31:26.980Z,20.90
2023-01-22T17:33:30.238Z,19.77
2023-01-22T17:35:34.160Z,19.95
2023-01-22T17:37:36.937Z,21.45
2023-01-22T17:39:40.829Z,20.52
2023-01-22T17:41:43.953Z,20.80
2023-01-22T17:43:48.343Z,20.67
2023-01-22T17:45:51.017Z,20.70
2023-01-22T17:47:53.637Z,19.85
2023-01-22T17:49:56.540Z,21.20
2023-01-22T17:52:00.451Z,22.38
2023-01-22T17:54:06.047Z,22.40
2023-01-22T17:56:10.878Z,21.73
2023-01-22T17:58:13.441Z,21.90
2023-01-22T18:00:17.497Z,22.27
2023-01-22T18:02:20.136Z,20.98
2023-01-22T18:04:25.742Z,21.85
2023-01-22T18:06:28.753Z,21.73
2023-01-22T18:08:34.708Z,21.55
2023-01-22T18:10:38.789Z,22.65
2023-01-22T18:12:42.221Z,22.33
2023-01-22T18:14:44.750Z,23.15
2023-01-22T18:16:47.348Z,22.67
2023-01-22T18:18:52.450Z,22.55
2023-01-22T18:20:55.259Z,22.10
2023-01-22T18:22:57.823Z,21.30
2023-01-22T18:25:01.829Z,22.23
2023-01-22T18:27:04.460Z,22.25
2023-01-22T18:29:07.214Z,21.85
2023-01-22T18:31:11.925Z,23.27
2023-01-22T18:33:14.987Z,24.77
2023-01-22T18:35:17.993Z,26.27
2023-01-22T18:37:20.756Z,27.80
2023-01-22T18:39:23.396Z,29.38
2023-01-22T18:41:28.190Z,28.45
2023-01-22T18:43:30.739Z,26.98
2023-01-22T18:45:35.068Z,27.25
2023-01-22T18:47:38.557Z,26.40
2023-01-22T18:49:41.095Z,26.88
2023-01-22T18:51:44.911Z,26.70
2023-01-22T18:53:48.687Z,26.52
2023-01-22T18:55:51.356Z,27.75
2023-01-22T18:57:58.360Z,28.13
2023-01-22T19:00:00.917Z,28.48
2023-01-22T19:02:03.489Z,29.33
2023-01-22T19:04:08.611Z,27.92
2023-01-22T19:06:14.474Z,28.67
2023-01-22T19:08:17.336Z,26.92
2023-01-22T19:10:23.101Z,28.20
2023-01-22T19:12:25.720Z,27.83
2023-01-22T19:14:29.620Z,28.90
2023-01-22T19:16:32.390Z,28.92
2023-01-22T19:18:34.932Z,30.25
2023-01-22T19:20:39.353Z,29.15
2023-01-22T19:22:42.524Z,28.05
2023-01-22T19:24:45.580Z,28.42
2023-01-22T19:26:50.332Z,29.42
2023-01-22T19:28:56.035Z,29.40
2023-01-22T19:31:00.000Z,27.55
2023-01-22T19:33:02.575Z,28.13
2023-01-22T19:35:06.661Z,26.00
2023-01-22T19:37:10.297Z,24.88
2023-01-22T19:39:14.202Z,26.10
2023-01-22T19:41:16.857Z,23.83
2023-01-22T19:43:19.757Z,22.77
2023-01-22T19:45:22.310Z,24.65
2023-01-22T19:47:26.563Z,24.23
2023-01-22T19:49:29.626Z,24.55
2023-01-22T19:51:32.180Z,25.80
2023-01-22T19:53:35.606Z,24.95
2023-01-22T19:55:38.166Z,25.60
2023-01-22T19:57:40.689Z,23.77
2023-01-22T19:59:43.458Z,23.48
2023-01-22T20:01:47.297Z,24.15
2023-01-22T20:03:51.351Z,23.35
2023-01-22T20:05:53.983Z,21.23
2023-01-22T20:07:58.533Z,21.23
2023-01-22T20:10:01.076Z,22.45
2023-01-22T20:12:05.473Z,22.42
2023-01-22T20:14:08.547Z,22.65
2023-01-22T20:16:18.917Z,21.33
2023-01-22T20:18:21.533Z,19.00
2023-01-22T20:20:26.062Z,20.48
2023-01-22T20:22:28.653Z,20.92
2023-01-22T20:24:31.217Z,19.23
2023-01-22T20:26:33.943Z,18.42
2023-01-22T20:28:37.349Z,18.70
2023-01-22T20:30:40.457Z,18.98
2023-01-22T20:32:43.058Z,18.02
2023-01-22T20:34:48.813Z,18.40
2023-01-22T20:36:53.024Z,19.65
2023-01-22T20:38:56.502Z,17.58
2023-01-22T20:41:00.241Z,18.20
2023-01-22T20:43:02.848Z,17.98
2023-01-22T20:45:06.789Z,18.48
2023-01-22T20:47:09.333Z,18.17
2023-01-22T20:49:12.691Z,19.75
2023-01-22T20:51:17.218Z,17.52
2023-01-22T20:53:21.192Z,17.10
2023-01-22T20:55:24.687Z,18.60
2023-01-22T20:57:27.221Z,17.42
2023-01-22T20:59:30.286Z,16.38
2023-01-22T21:01:33.614Z,17.17
2023-01-22T21:03:36.649Z,16.45
2023-01-22T21:05:41.091Z,16.85
2023-01-22T21:07:43.877Z,16.52
2023-01-22T21:09:48.469Z,16.17
2023-01-22T21:11:51.114Z,17.02
2023-01-22T21:13:54.400Z,17.02
2023-01-22T21:15:57.010Z,16.52
2023-01-22T21:17:59.605Z,16.75
2023-01-22T21:20:02.195Z,17.45
2023-01-22T21:22:05.454Z,16.88
2023-01-22T21:24:08.674Z,16.17
2023-01-22T21:26:15.526Z,16.88
2023-01-22T21:28:18.095Z,17.23
2023-01-22T21:30:21.064Z,16.25
2023-01-22T21:32:23.742Z,16.90
2023-01-22T21:34:28.514Z,16.42
2023-01-22T21:36:32.200Z,16.02
2023-01-22T21:38:35.350Z,17.15
2023-01-22T21:40:37.971Z,17.75
2023-01-22T21:42:59.835Z,17.23
2023-01-22T21:45:20.182Z,16.52
2023-01-22T21:47:22.738Z,16.05
2023-01-22T21:49:25.372Z,15.60
2023-01-22T21:51:29.455Z,15.73
2023-01-22T21:53:32.010Z,17.42
2023-01-22T21:55:34.630Z,17.17
2023-01-22T21:57:38.639Z,17.60
2023-01-22T21:59:43.117Z,18.02
2023-01-22T22:01:46.649Z,17.33
2023-01-22T22:03:49.518Z,17.23
2023-01-22T22:06:02.032Z,16.98
2023-01-22T22:08:05.116Z,18.60
2023-01-22T22:10:12.522Z,18.23
2023-01-22T22:12:15.076Z,17.63
2023-01-22T22:14:20.204Z,17.42
2023-01-22T22:16:24.649Z,17.08
2023-01-22T22:18:27.302Z,16.85
2023-01-22T22:20:30.037Z,17.17
2023-01-22T22:22:32.686Z,15.70
2023-01-22T22:24:35.270Z,17.38
2023-01-22T22:26:38.345Z,18.17
2023-01-22T22:28:40.915Z,18.02
2023-01-22T22:30:43.466Z,16.67
2023-01-22T22:32:47.422Z,17.70
2023-01-22T22:34:50.412Z,18.80
2023-01-22T22:36:55.421Z,18.33
2023-01-22T22:38:58.157Z,17.65
2023-01-22T22:41:02.609Z,17.90
2023-01-22T22:43:05.141Z,18.33
2023-01-22T22:45:08.790Z,18.77
2023-01-22T22:47:11.403Z,17.73
2023-01-22T22:49:15.481Z,19.17
2023-01-22T22:51:20.574Z,19.00
2023-01-22T22:53:23.157Z,19.25
2023-01-22T22:55:26.664Z,19.08
2023-01-22T22:57:29.371Z,19.00
2023-01-22T22:59:31.910Z,18.38
2023-01-22T23:01:37.612Z,18.38
2023-01-22T23:03:40.925Z,18.45
2023-01-22T23:05:44.881Z,18.98
2023-01-22T23:07:47.533Z,18.65
2023-01-22T23:09:50.131Z,18.50
2023-01-22T23:11:55.470Z,18.67
2023-01-22T23:14:01.141Z,19.20
2023-01-22T23:16:05.445Z,17.85
2023-01-22T23:18:08.040Z,17.77
2023-01-22T23:20:12.441Z,18.67
2023-01-22T23:22:16.737Z,18.40
2023-01-22T23:24:19.345Z,19.27
2023-01-22T23:26:27.948Z,19.13
2023-01-22T23:28:30.496Z,18.95
2023-01-22T23:30:33.141Z,18.08
2023-01-22T23:32:35.829Z,18.58
2023-01-22T23:34:38.433Z,19.48
2023-01-22T23:36:45.145Z,18.25
2023-01-22T23:38:49.527Z,18.67
2023-01-22T23:40:57.209Z,19.45
2023-01-22T23:42:59.772Z,18.70
2023-01-22T23:45:02.349Z,18.20
2023-01-22T23:47:04.926Z,18.25
2023-01-22T23:49:07.510Z,19.02
2023-01-22T23:51:12.253Z,18.05
2023-01-22T23:53:15.644Z,18.95
2023-01-22T23:55:19.565Z,18.80
2023-01-22T23:57:22.167Z,19.17
2023-01-22T23:59:24.687Z,18.30
